sensor_id;sensor_type;location;lat;lon;timestamp;temperature;humidity
14095;DHT22;18096;48.142;16.290;2022-09-16T00:00:17;16.80;91.10
14095;DHT22;18096;48.142;16.290;2022-09-16T00:02:43;16.70;91.20
14095;DHT22;18096;48.142;16.290;2022-09-16T00:05:09;16.70;91.40
14095;DHT22;18096;48.142;16.290;2022-09-16T00:07:35;16.70;91.60
14095;DHT22;18096;48.142;16.290;2022-09-16T00:10:01;16.70;91.70
14095;DHT22;18096;48.142;16.290;2022-09-16T00:12:27;16.60;91.80
14095;DHT22;18096;48.142;16.290;2022-09-16T00:14:53;16.60;92.00
14095;DHT22;18096;48.142;16.290;2022-09-16T00:17:20;16.60;92.20
14095;DHT22;18096;48.142;16.290;2022-09-16T00:19:47;16.60;92.30
14095;DHT22;18096;48.142;16.290;2022-09-16T00:22:14;16.50;92.40
14095;DHT22;18096;48.142;16.290;2022-09-16T00:24:39;16.60;92.50
14095;DHT22;18096;48.142;16.290;2022-09-16T00:27:05;16.60;92.50
14095;DHT22;18096;48.142;16.290;2022-09-16T00:29:31;16.60;92.60
14095;DHT22;18096;48.142;16.290;2022-09-16T00:31:56;16.60;92.60
14095;DHT22;18096;48.142;16.290;2022-09-16T00:34:22;16.60;92.70
14095;DHT22;18096;48.142;16.290;2022-09-16T00:36:47;16.60;92.60
14095;DHT22;18096;48.142;16.290;2022-09-16T00:39:13;16.60;92.50
14095;DHT22;18096;48.142;16.290;2022-09-16T00:41:39;16.60;92.30
14095;DHT22;18096;48.142;16.290;2022-09-16T00:46:52;16.60;92.30
14095;DHT22;18096;48.142;16.290;2022-09-16T00:49:28;16.60;92.30
14095;DHT22;18096;48.142;16.290;2022-09-16T00:52:02;16.60;92.10
14095;DHT22;18096;48.142;16.290;2022-09-16T00:54:31;16.60;91.90
14095;DHT22;18096;48.142;16.290;2022-09-16T00:57:00;16.50;91.80
14095;DHT22;18096;48.142;16.290;2022-09-16T00:59:34;16.60;91.80
14095;DHT22;18096;48.142;16.290;2022-09-16T01:02:11;16.50;91.60
14095;DHT22;18096;48.142;16.290;2022-09-16T01:04:50;16.50;91.80
14095;DHT22;18096;48.142;16.290;2022-09-16T01:07:25;16.50;91.70
14095;DHT22;18096;48.142;16.290;2022-09-16T01:09:51;16.40;91.70
14095;DHT22;18096;48.142;16.290;2022-09-16T01:12:17;16.50;91.80
14095;DHT22;18096;48.142;16.290;2022-09-16T01:14:43;16.40;91.60
14095;DHT22;18096;48.142;16.290;2022-09-16T01:17:59;16.40;91.60
14095;DHT22;18096;48.142;16.290;2022-09-16T01:31:28;16.30;91.30
14095;DHT22;18096;48.142;16.290;2022-09-16T01:34:11;16.30;91.10
14095;DHT22;18096;48.142;16.290;2022-09-16T01:39:18;16.30;91.00
14095;DHT22;18096;48.142;16.290;2022-09-16T01:42:00;16.30;90.90
14095;DHT22;18096;48.142;16.290;2022-09-16T01:44:41;16.30;91.10
14095;DHT22;18096;48.142;16.290;2022-09-16T01:47:21;16.30;90.90
14095;DHT22;18096;48.142;16.290;2022-09-16T01:50:04;16.20;91.00
14095;DHT22;18096;48.142;16.290;2022-09-16T01:52:39;16.20;90.90
14095;DHT22;18096;48.142;16.290;2022-09-16T01:55:09;16.20;90.80
14095;DHT22;18096;48.142;16.290;2022-09-16T01:57:56;16.20;90.90
14095;DHT22;18096;48.142;16.290;2022-09-16T02:00:24;16.20;91.00
14095;DHT22;18096;48.142;16.290;2022-09-16T02:05:50;16.20;91.10
14095;DHT22;18096;48.142;16.290;2022-09-16T02:08:29;16.20;91.00
14095;DHT22;18096;48.142;16.290;2022-09-16T02:10:59;16.20;91.10
14095;DHT22;18096;48.142;16.290;2022-09-16T02:13:29;16.10;91.10
14095;DHT22;18096;48.142;16.290;2022-09-16T02:16:00;16.10;91.10
14095;DHT22;18096;48.142;16.290;2022-09-16T02:18:33;16.10;91.10
14095;DHT22;18096;48.142;16.290;2022-09-16T02:21:03;16.10;91.10
14095;DHT22;18096;48.142;16.290;2022-09-16T02:23:45;16.10;91.00
14095;DHT22;18096;48.142;16.290;2022-09-16T02:26:14;16.10;91.10
14095;DHT22;18096;48.142;16.290;2022-09-16T02:28:43;16.10;91.10
14095;DHT22;18096;48.142;16.290;2022-09-16T02:31:12;16.10;91.10
14095;DHT22;18096;48.142;16.290;2022-09-16T02:33:48;16.10;91.00
14095;DHT22;18096;48.142;16.290;2022-09-16T02:36:20;16.10;91.00
14095;DHT22;18096;48.142;16.290;2022-09-16T02:38:50;16.10;91.00
14095;DHT22;18096;48.142;16.290;2022-09-16T02:41:19;16.10;91.00
14095;DHT22;18096;48.142;16.290;2022-09-16T02:43:45;16.10;90.90
14095;DHT22;18096;48.142;16.290;2022-09-16T02:49:23;16.10;90.90
14095;DHT22;18096;48.142;16.290;2022-09-16T02:56:48;16.10;91.00
14095;DHT22;18096;48.142;16.290;2022-09-16T02:59:15;16.10;91.00
14095;DHT22;18096;48.142;16.290;2022-09-16T03:01:45;16.10;91.10
14095;DHT22;18096;48.142;16.290;2022-09-16T03:04:14;16.10;91.10
14095;DHT22;18096;48.142;16.290;2022-09-16T03:06:40;16.10;91.00
14095;DHT22;18096;48.142;16.290;2022-09-16T03:09:08;16.10;91.00
14095;DHT22;18096;48.142;16.290;2022-09-16T03:15:16;16.00;91.10
14095;DHT22;18096;48.142;16.290;2022-09-16T03:26:57;16.00;91.30
14095;DHT22;18096;48.142;16.290;2022-09-16T03:29:32;16.00;91.40
14095;DHT22;18096;48.142;16.290;2022-09-16T03:32:24;15.90;91.40
14095;DHT22;18096;48.142;16.290;2022-09-16T03:35:00;15.90;91.40
14095;DHT22;18096;48.142;16.290;2022-09-16T03:37:28;15.90;91.50
14095;DHT22;18096;48.142;16.290;2022-09-16T03:39:58;15.90;91.60
14095;DHT22;18096;48.142;16.290;2022-09-16T03:42:27;15.90;91.50
14095;DHT22;18096;48.142;16.290;2022-09-16T03:44:53;15.90;91.50
14095;DHT22;18096;48.142;16.290;2022-09-16T03:47:18;15.90;91.50
14095;DHT22;18096;48.142;16.290;2022-09-16T03:49:45;15.90;91.60
14095;DHT22;18096;48.142;16.290;2022-09-16T03:52:11;15.80;91.60
14095;DHT22;18096;48.142;16.290;2022-09-16T03:54:38;15.90;91.60
14095;DHT22;18096;48.142;16.290;2022-09-16T03:57:04;15.90;91.70
14095;DHT22;18096;48.142;16.290;2022-09-16T03:59:30;15.80;91.60
14095;DHT22;18096;48.142;16.290;2022-09-16T04:01:56;15.80;91.60
14095;DHT22;18096;48.142;16.290;2022-09-16T04:04:22;15.80;91.60
14095;DHT22;18096;48.142;16.290;2022-09-16T04:06:47;15.80;91.60
14095;DHT22;18096;48.142;16.290;2022-09-16T04:09:13;15.90;91.60
14095;DHT22;18096;48.142;16.290;2022-09-16T04:11:41;15.90;91.60
14095;DHT22;18096;48.142;16.290;2022-09-16T04:14:07;15.90;91.40
14095;DHT22;18096;48.142;16.290;2022-09-16T04:16:33;15.90;91.40
14095;DHT22;18096;48.142;16.290;2022-09-16T04:18:59;15.90;91.50
14095;DHT22;18096;48.142;16.290;2022-09-16T04:21:25;15.90;91.40
14095;DHT22;18096;48.142;16.290;2022-09-16T04:23:51;15.90;91.50
14095;DHT22;18096;48.142;16.290;2022-09-16T04:26:17;16.00;91.50
14095;DHT22;18096;48.142;16.290;2022-09-16T04:28:42;15.90;91.40
14095;DHT22;18096;48.142;16.290;2022-09-16T04:31:13;15.90;91.40
14095;DHT22;18096;48.142;16.290;2022-09-16T04:33:39;15.90;91.50
14095;DHT22;18096;48.142;16.290;2022-09-16T04:36:07;15.90;91.40
14095;DHT22;18096;48.142;16.290;2022-09-16T04:38:34;15.90;91.50
14095;DHT22;18096;48.142;16.290;2022-09-16T04:41:01;15.80;91.40
14095;DHT22;18096;48.142;16.290;2022-09-16T04:43:28;15.90;91.40
14095;DHT22;18096;48.142;16.290;2022-09-16T04:45:54;15.90;91.50
14095;DHT22;18096;48.142;16.290;2022-09-16T04:48:19;15.80;91.40
14095;DHT22;18096;48.142;16.290;2022-09-16T04:50:46;15.80;91.50
14095;DHT22;18096;48.142;16.290;2022-09-16T04:53:12;15.80;91.50
14095;DHT22;18096;48.142;16.290;2022-09-16T04:55:37;15.80;91.60
14095;DHT22;18096;48.142;16.290;2022-09-16T04:58:03;15.80;91.50
14095;DHT22;18096;48.142;16.290;2022-09-16T05:00:29;15.80;91.50
14095;DHT22;18096;48.142;16.290;2022-09-16T05:02:54;15.80;91.40
14095;DHT22;18096;48.142;16.290;2022-09-16T05:05:21;15.80;91.40
14095;DHT22;18096;48.142;16.290;2022-09-16T05:07:51;15.80;91.30
14095;DHT22;18096;48.142;16.290;2022-09-16T05:10:17;15.80;91.40
14095;DHT22;18096;48.142;16.290;2022-09-16T05:12:43;15.80;91.20
14095;DHT22;18096;48.142;16.290;2022-09-16T05:15:08;15.80;91.30
14095;DHT22;18096;48.142;16.290;2022-09-16T05:17:34;15.80;91.00
14095;DHT22;18096;48.142;16.290;2022-09-16T05:20:00;15.80;91.00
14095;DHT22;18096;48.142;16.290;2022-09-16T05:22:25;15.80;90.90
14095;DHT22;18096;48.142;16.290;2022-09-16T05:24:51;15.80;90.80
14095;DHT22;18096;48.142;16.290;2022-09-16T05:27:18;15.80;90.70
14095;DHT22;18096;48.142;16.290;2022-09-16T05:29:44;15.80;90.80
14095;DHT22;18096;48.142;16.290;2022-09-16T05:32:10;15.80;90.90
14095;DHT22;18096;48.142;16.290;2022-09-16T05:34:35;15.80;91.00
14095;DHT22;18096;48.142;16.290;2022-09-16T05:37:02;15.80;91.10
14095;DHT22;18096;48.142;16.290;2022-09-16T05:39:27;15.90;90.90
14095;DHT22;18096;48.142;16.290;2022-09-16T05:41:59;15.80;90.80
14095;DHT22;18096;48.142;16.290;2022-09-16T05:44:25;15.80;90.90
14095;DHT22;18096;48.142;16.290;2022-09-16T05:46:52;15.80;90.90
14095;DHT22;18096;48.142;16.290;2022-09-16T05:49:17;15.80;90.80
14095;DHT22;18096;48.142;16.290;2022-09-16T05:51:45;15.80;90.90
14095;DHT22;18096;48.142;16.290;2022-09-16T05:54:11;15.90;91.00
14095;DHT22;18096;48.142;16.290;2022-09-16T05:56:37;15.90;91.10
14095;DHT22;18096;48.142;16.290;2022-09-16T05:59:03;15.90;90.80
14095;DHT22;18096;48.142;16.290;2022-09-16T06:01:33;15.90;90.80
14095;DHT22;18096;48.142;16.290;2022-09-16T06:04:02;16.00;90.80
14095;DHT22;18096;48.142;16.290;2022-09-16T06:06:33;16.00;90.60
14095;DHT22;18096;48.142;16.290;2022-09-16T06:09:08;15.90;90.60
14095;DHT22;18096;48.142;16.290;2022-09-16T06:11:39;16.00;90.50
14095;DHT22;18096;48.142;16.290;2022-09-16T06:14:05;16.00;90.60
14095;DHT22;18096;48.142;16.290;2022-09-16T06:16:32;16.00;90.60
14095;DHT22;18096;48.142;16.290;2022-09-16T06:18:59;16.00;90.70
14095;DHT22;18096;48.142;16.290;2022-09-16T06:21:26;16.00;90.60
14095;DHT22;18096;48.142;16.290;2022-09-16T06:23:52;16.00;90.70
14095;DHT22;18096;48.142;16.290;2022-09-16T06:26:20;16.00;90.70
14095;DHT22;18096;48.142;16.290;2022-09-16T06:28:47;16.00;90.80
14095;DHT22;18096;48.142;16.290;2022-09-16T06:31:15;16.00;90.80
14095;DHT22;18096;48.142;16.290;2022-09-16T06:33:42;16.10;90.90
14095;DHT22;18096;48.142;16.290;2022-09-16T06:36:14;16.10;90.60
14095;DHT22;18096;48.142;16.290;2022-09-16T06:38:41;16.10;90.50
14095;DHT22;18096;48.142;16.290;2022-09-16T06:41:09;16.10;90.50
14095;DHT22;18096;48.142;16.290;2022-09-16T06:43:36;16.10;90.80
14095;DHT22;18096;48.142;16.290;2022-09-16T06:46:04;16.20;90.50
14095;DHT22;18096;48.142;16.290;2022-09-16T06:48:33;16.20;90.40
14095;DHT22;18096;48.142;16.290;2022-09-16T06:51:00;16.20;90.20
14095;DHT22;18096;48.142;16.290;2022-09-16T06:53:27;16.20;90.20
14095;DHT22;18096;48.142;16.290;2022-09-16T06:55:54;16.20;90.20
14095;DHT22;18096;48.142;16.290;2022-09-16T06:58:21;16.20;90.00
14095;DHT22;18096;48.142;16.290;2022-09-16T07:00:46;16.30;90.00
14095;DHT22;18096;48.142;16.290;2022-09-16T07:03:15;16.30;90.00
14095;DHT22;18096;48.142;16.290;2022-09-16T07:05:41;16.20;89.90
14095;DHT22;18096;48.142;16.290;2022-09-16T07:08:16;16.20;89.20
14095;DHT22;18096;48.142;16.290;2022-09-16T07:10:42;16.20;89.00
14095;DHT22;18096;48.142;16.290;2022-09-16T07:13:12;16.10;88.90
14095;DHT22;18096;48.142;16.290;2022-09-16T07:15:40;16.10;89.00
14095;DHT22;18096;48.142;16.290;2022-09-16T07:18:06;16.00;89.10
14095;DHT22;18096;48.142;16.290;2022-09-16T07:20:33;16.00;89.20
14095;DHT22;18096;48.142;16.290;2022-09-16T07:23:00;16.00;89.40
14095;DHT22;18096;48.142;16.290;2022-09-16T07:25:26;16.10;89.70
14095;DHT22;18096;48.142;16.290;2022-09-16T07:27:53;16.20;89.60
14095;DHT22;18096;48.142;16.290;2022-09-16T07:30:22;16.20;89.10
14095;DHT22;18096;48.142;16.290;2022-09-16T07:32:48;16.30;89.40
14095;DHT22;18096;48.142;16.290;2022-09-16T07:35:15;16.30;88.60
14095;DHT22;18096;48.142;16.290;2022-09-16T07:37:46;16.40;89.20
14095;DHT22;18096;48.142;16.290;2022-09-16T07:40:14;16.40;88.40
14095;DHT22;18096;48.142;16.290;2022-09-16T07:42:39;16.40;87.20
14095;DHT22;18096;48.142;16.290;2022-09-16T07:45:07;16.50;86.90
14095;DHT22;18096;48.142;16.290;2022-09-16T07:47:34;16.50;86.30
14095;DHT22;18096;48.142;16.290;2022-09-16T07:49:59;16.50;86.00
14095;DHT22;18096;48.142;16.290;2022-09-16T07:52:26;16.60;86.00
14095;DHT22;18096;48.142;16.290;2022-09-16T07:54:54;16.60;86.00
14095;DHT22;18096;48.142;16.290;2022-09-16T07:57:22;16.60;86.10
14095;DHT22;18096;48.142;16.290;2022-09-16T07:59:51;16.70;87.10
14095;DHT22;18096;48.142;16.290;2022-09-16T08:02:19;16.70;87.50
14095;DHT22;18096;48.142;16.290;2022-09-16T08:04:45;16.70;87.00
14095;DHT22;18096;48.142;16.290;2022-09-16T08:07:10;16.70;87.60
14095;DHT22;18096;48.142;16.290;2022-09-16T08:09:42;16.70;87.30
14095;DHT22;18096;48.142;16.290;2022-09-16T08:12:09;16.70;87.10
14095;DHT22;18096;48.142;16.290;2022-09-16T08:14:35;16.70;86.70
14095;DHT22;18096;48.142;16.290;2022-09-16T08:17:01;16.70;86.50
14095;DHT22;18096;48.142;16.290;2022-09-16T08:19:29;16.70;86.40
14095;DHT22;18096;48.142;16.290;2022-09-16T08:21:57;16.80;86.50
14095;DHT22;18096;48.142;16.290;2022-09-16T08:24:23;16.80;86.70
14095;DHT22;18096;48.142;16.290;2022-09-16T08:26:48;16.80;86.20
14095;DHT22;18096;48.142;16.290;2022-09-16T08:29:14;16.80;86.30
14095;DHT22;18096;48.142;16.290;2022-09-16T08:31:40;16.90;85.40
14095;DHT22;18096;48.142;16.290;2022-09-16T08:34:05;16.90;85.20
14095;DHT22;18096;48.142;16.290;2022-09-16T08:36:33;16.90;85.30
14095;DHT22;18096;48.142;16.290;2022-09-16T08:38:59;17.00;85.00
14095;DHT22;18096;48.142;16.290;2022-09-16T08:41:53;17.00;85.30
14095;DHT22;18096;48.142;16.290;2022-09-16T08:50:02;17.00;85.00
14095;DHT22;18096;48.142;16.290;2022-09-16T08:52:38;17.10;84.50
14095;DHT22;18096;48.142;16.290;2022-09-16T08:55:20;17.10;83.70
14095;DHT22;18096;48.142;16.290;2022-09-16T08:57:55;17.10;83.60
14095;DHT22;18096;48.142;16.290;2022-09-16T09:00:26;17.20;83.20
14095;DHT22;18096;48.142;16.290;2022-09-16T09:05:52;17.30;82.60
14095;DHT22;18096;48.142;16.290;2022-09-16T09:16:52;17.50;81.00
14095;DHT22;18096;48.142;16.290;2022-09-16T09:25:50;17.70;82.70
14095;DHT22;18096;48.142;16.290;2022-09-16T09:40:16;17.70;82.60
14095;DHT22;18096;48.142;16.290;2022-09-16T09:48:29;17.70;83.70
14095;DHT22;18096;48.142;16.290;2022-09-16T09:50:58;17.70;83.20
14095;DHT22;18096;48.142;16.290;2022-09-16T09:53:35;17.80;83.30
14095;DHT22;18096;48.142;16.290;2022-09-16T09:56:24;17.80;83.20
14095;DHT22;18096;48.142;16.290;2022-09-16T10:01:56;17.90;83.40
14095;DHT22;18096;48.142;16.290;2022-09-16T10:04:24;17.90;83.70
14095;DHT22;18096;48.142;16.290;2022-09-16T10:06:53;17.90;84.00
14095;DHT22;18096;48.142;16.290;2022-09-16T10:09:21;18.00;83.80
14095;DHT22;18096;48.142;16.290;2022-09-16T10:11:53;18.00;83.80
14095;DHT22;18096;48.142;16.290;2022-09-16T10:14:33;18.10;83.60
14095;DHT22;18096;48.142;16.290;2022-09-16T10:17:01;18.10;83.00
14095;DHT22;18096;48.142;16.290;2022-09-16T10:19:53;18.10;82.50
14095;DHT22;18096;48.142;16.290;2022-09-16T10:22:30;18.10;83.30
14095;DHT22;18096;48.142;16.290;2022-09-16T10:24:59;18.10;83.30
14095;DHT22;18096;48.142;16.290;2022-09-16T10:27:34;18.10;83.40
14095;DHT22;18096;48.142;16.290;2022-09-16T10:30:18;18.20;83.50
14095;DHT22;18096;48.142;16.290;2022-09-16T10:35:27;18.20;83.80
14095;DHT22;18096;48.142;16.290;2022-09-16T10:38:03;18.30;84.20
14095;DHT22;18096;48.142;16.290;2022-09-16T10:40:30;18.30;85.00
14095;DHT22;18096;48.142;16.290;2022-09-16T10:43:03;18.30;84.50
14095;DHT22;18096;48.142;16.290;2022-09-16T10:45:33;18.30;84.60
14095;DHT22;18096;48.142;16.290;2022-09-16T10:48:04;18.30;85.40
14095;DHT22;18096;48.142;16.290;2022-09-16T10:50:31;18.30;85.30
14095;DHT22;18096;48.142;16.290;2022-09-16T10:53:28;18.30;85.10
14095;DHT22;18096;48.142;16.290;2022-09-16T10:56:03;18.30;85.10
14095;DHT22;18096;48.142;16.290;2022-09-16T10:58:34;18.30;85.40
14095;DHT22;18096;48.142;16.290;2022-09-16T11:10:38;18.40;84.80
14095;DHT22;18096;48.142;16.290;2022-09-16T11:13:54;18.30;84.60
14095;DHT22;18096;48.142;16.290;2022-09-16T11:22:48;18.20;84.50
14095;DHT22;18096;48.142;16.290;2022-09-16T11:32:06;18.20;84.50
14095;DHT22;18096;48.142;16.290;2022-09-16T11:41:00;18.10;84.90
14095;DHT22;18096;48.142;16.290;2022-09-16T12:01:07;18.00;84.60
14095;DHT22;18096;48.142;16.290;2022-09-16T12:07:01;18.00;84.90
14095;DHT22;18096;48.142;16.290;2022-09-16T12:09:49;18.10;84.60
14095;DHT22;18096;48.142;16.290;2022-09-16T12:12:18;18.10;84.20
14095;DHT22;18096;48.142;16.290;2022-09-16T12:14:52;18.10;84.00
14095;DHT22;18096;48.142;16.290;2022-09-16T12:17:22;18.20;84.50
14095;DHT22;18096;48.142;16.290;2022-09-16T12:19:54;18.20;84.80
14095;DHT22;18096;48.142;16.290;2022-09-16T12:22:32;18.30;84.50
14095;DHT22;18096;48.142;16.290;2022-09-16T12:28:16;18.20;84.30
14095;DHT22;18096;48.142;16.290;2022-09-16T12:30:48;18.30;84.70
14095;DHT22;18096;48.142;16.290;2022-09-16T12:39:53;18.50;83.10
14095;DHT22;18096;48.142;16.290;2022-09-16T12:42:39;18.50;82.40
14095;DHT22;18096;48.142;16.290;2022-09-16T12:45:42;18.50;82.50
14095;DHT22;18096;48.142;16.290;2022-09-16T12:56:57;18.50;81.80
14095;DHT22;18096;48.142;16.290;2022-09-16T13:02:51;18.50;81.90
14095;DHT22;18096;48.142;16.290;2022-09-16T13:05:36;18.50;81.80
14095;DHT22;18096;48.142;16.290;2022-09-16T13:08:13;18.50;81.80
14095;DHT22;18096;48.142;16.290;2022-09-16T13:11:02;18.50;81.50
14095;DHT22;18096;48.142;16.290;2022-09-16T13:13:35;18.40;81.30
14095;DHT22;18096;48.142;16.290;2022-09-16T13:16:04;18.40;81.20
14095;DHT22;18096;48.142;16.290;2022-09-16T13:18:48;18.40;81.20
14095;DHT22;18096;48.142;16.290;2022-09-16T13:26:24;18.50;82.10
14095;DHT22;18096;48.142;16.290;2022-09-16T13:28:50;18.50;81.50
14095;DHT22;18096;48.142;16.290;2022-09-16T13:31:44;18.50;81.60
14095;DHT22;18096;48.142;16.290;2022-09-16T13:34:15;18.50;81.70
14095;DHT22;18096;48.142;16.290;2022-09-16T13:36:42;18.40;81.70
14095;DHT22;18096;48.142;16.290;2022-09-16T13:39:26;18.50;81.80
14095;DHT22;18096;48.142;16.290;2022-09-16T13:41:53;18.50;81.90
14095;DHT22;18096;48.142;16.290;2022-09-16T13:49:55;18.40;81.70
14095;DHT22;18096;48.142;16.290;2022-09-16T13:52:29;18.40;81.80
14095;DHT22;18096;48.142;16.290;2022-09-16T13:54:59;18.40;81.50
14095;DHT22;18096;48.142;16.290;2022-09-16T13:57:59;18.40;81.60
14095;DHT22;18096;48.142;16.290;2022-09-16T14:03:41;18.30;81.30
14095;DHT22;18096;48.142;16.290;2022-09-16T14:11:48;18.30;81.10
14095;DHT22;18096;48.142;16.290;2022-09-16T14:14:24;18.30;80.00
14095;DHT22;18096;48.142;16.290;2022-09-16T14:16:53;18.30;79.70
14095;DHT22;18096;48.142;16.290;2022-09-16T14:19:27;18.40;79.90
14095;DHT22;18096;48.142;16.290;2022-09-16T14:22:15;18.30;79.90
14095;DHT22;18096;48.142;16.290;2022-09-16T14:24:45;18.30;80.10
14095;DHT22;18096;48.142;16.290;2022-09-16T14:27:35;18.30;80.50
14095;DHT22;18096;48.142;16.290;2022-09-16T14:30:20;18.30;80.70
14095;DHT22;18096;48.142;16.290;2022-09-16T14:32:48;18.30;80.60
14095;DHT22;18096;48.142;16.290;2022-09-16T14:35:23;18.30;80.80
14095;DHT22;18096;48.142;16.290;2022-09-16T14:38:01;18.30;80.70
14095;DHT22;18096;48.142;16.290;2022-09-16T14:40:30;18.30;80.70
14095;DHT22;18096;48.142;16.290;2022-09-16T14:53:53;18.30;80.80
14095;DHT22;18096;48.142;16.290;2022-09-16T14:56:20;18.30;80.50
14095;DHT22;18096;48.142;16.290;2022-09-16T14:58:46;18.30;80.30
14095;DHT22;18096;48.142;16.290;2022-09-16T15:01:28;18.30;80.20
14095;DHT22;18096;48.142;16.290;2022-09-16T15:04:17;18.30;80.00
14095;DHT22;18096;48.142;16.290;2022-09-16T15:06:53;18.30;80.80
14095;DHT22;18096;48.142;16.290;2022-09-16T15:09:40;18.30;80.80
14095;DHT22;18096;48.142;16.290;2022-09-16T15:12:57;18.30;80.70
14095;DHT22;18096;48.142;16.290;2022-09-16T15:15:18;18.20;80.50
14095;DHT22;18096;48.142;16.290;2022-09-16T15:18:22;18.20;80.50
14095;DHT22;18096;48.142;16.290;2022-09-16T15:20:58;18.20;81.10
14095;DHT22;18096;48.142;16.290;2022-09-16T15:23:26;18.20;81.00
14095;DHT22;18096;48.142;16.290;2022-09-16T15:26:05;18.20;80.50
14095;DHT22;18096;48.142;16.290;2022-09-16T15:28:32;18.10;80.30
14095;DHT22;18096;48.142;16.290;2022-09-16T15:33:53;18.10;79.90
14095;DHT22;18096;48.142;16.290;2022-09-16T15:36:39;18.10;79.80
14095;DHT22;18096;48.142;16.290;2022-09-16T15:39:29;18.10;80.50
14095;DHT22;18096;48.142;16.290;2022-09-16T15:44:49;18.00;81.60
14095;DHT22;18096;48.142;16.290;2022-09-16T15:47:44;18.00;81.70
14095;DHT22;18096;48.142;16.290;2022-09-16T15:50:17;18.00;81.70
14095;DHT22;18096;48.142;16.290;2022-09-16T15:56:17;17.90;81.20
14095;DHT22;18096;48.142;16.290;2022-09-16T15:58:49;17.90;81.70
14095;DHT22;18096;48.142;16.290;2022-09-16T16:04:04;17.90;81.30
14095;DHT22;18096;48.142;16.290;2022-09-16T16:07:05;17.90;81.40
14095;DHT22;18096;48.142;16.290;2022-09-16T16:09:38;17.80;81.70
14095;DHT22;18096;48.142;16.290;2022-09-16T16:12:11;17.80;81.90
14095;DHT22;18096;48.142;16.290;2022-09-16T16:14:58;17.80;82.50
14095;DHT22;18096;48.142;16.290;2022-09-16T16:17:41;17.70;82.20
14095;DHT22;18096;48.142;16.290;2022-09-16T16:20:10;17.70;82.50
14095;DHT22;18096;48.142;16.290;2022-09-16T16:22:40;17.70;82.50
14095;DHT22;18096;48.142;16.290;2022-09-16T16:25:38;17.70;82.70
14095;DHT22;18096;48.142;16.290;2022-09-16T16:28:12;17.70;82.70
14095;DHT22;18096;48.142;16.290;2022-09-16T16:30:38;17.70;83.40
14095;DHT22;18096;48.142;16.290;2022-09-16T16:33:34;17.70;83.30
14095;DHT22;18096;48.142;16.290;2022-09-16T16:36:10;17.60;83.40
14095;DHT22;18096;48.142;16.290;2022-09-16T16:38:38;17.60;83.20
14095;DHT22;18096;48.142;16.290;2022-09-16T16:41:07;17.60;83.10
14095;DHT22;18096;48.142;16.290;2022-09-16T16:43:56;17.60;83.00
14095;DHT22;18096;48.142;16.290;2022-09-16T16:46:24;17.60;83.00
14095;DHT22;18096;48.142;16.290;2022-09-16T16:49:04;17.60;83.10
14095;DHT22;18096;48.142;16.290;2022-09-16T16:51:32;17.60;83.30
14095;DHT22;18096;48.142;16.290;2022-09-16T16:54:09;17.50;83.20
14095;DHT22;18096;48.142;16.290;2022-09-16T16:56:41;17.50;83.40
14095;DHT22;18096;48.142;16.290;2022-09-16T16:59:21;17.50;83.90
14095;DHT22;18096;48.142;16.290;2022-09-16T17:01:50;17.50;83.30
14095;DHT22;18096;48.142;16.290;2022-09-16T17:04:36;17.50;83.40
14095;DHT22;18096;48.142;16.290;2022-09-16T17:07:26;17.50;84.00
14095;DHT22;18096;48.142;16.290;2022-09-16T17:10:21;17.50;82.80
14095;DHT22;18096;48.142;16.290;2022-09-16T17:12:55;17.50;83.30
14095;DHT22;18096;48.142;16.290;2022-09-16T17:15:26;17.50;84.10
14095;DHT22;18096;48.142;16.290;2022-09-16T17:18:18;17.40;85.40
14095;DHT22;18096;48.142;16.290;2022-09-16T17:20:53;17.30;86.50
14095;DHT22;18096;48.142;16.290;2022-09-16T17:23:41;17.20;87.00
14095;DHT22;18096;48.142;16.290;2022-09-16T17:26:27;17.10;87.80
14095;DHT22;18096;48.142;16.290;2022-09-16T17:28:53;17.10;89.00
14095;DHT22;18096;48.142;16.290;2022-09-16T17:31:27;17.00;89.10
14095;DHT22;18096;48.142;16.290;2022-09-16T17:34:31;16.90;89.60
14095;DHT22;18096;48.142;16.290;2022-09-16T17:37:11;16.80;89.40
14095;DHT22;18096;48.142;16.290;2022-09-16T17:40:11;16.80;89.80
14095;DHT22;18096;48.142;16.290;2022-09-16T17:42:59;16.70;90.00
14095;DHT22;18096;48.142;16.290;2022-09-16T17:45:30;16.60;90.10
14095;DHT22;18096;48.142;16.290;2022-09-16T17:47:56;16.50;90.20
14095;DHT22;18096;48.142;16.290;2022-09-16T17:50:25;16.40;90.50
14095;DHT22;18096;48.142;16.290;2022-09-16T18:00:08;17.10;89.00
14095;DHT22;18096;48.142;16.290;2022-09-16T18:02:40;17.10;89.00
14095;DHT22;18096;48.142;16.290;2022-09-16T18:05:13;17.10;87.20
14095;DHT22;18096;48.142;16.290;2022-09-16T18:07:38;17.10;88.20
14095;DHT22;18096;48.142;16.290;2022-09-16T18:10:18;17.20;87.30
14095;DHT22;18096;48.142;16.290;2022-09-16T18:12:51;17.20;87.00
14095;DHT22;18096;48.142;16.290;2022-09-16T18:15:23;17.30;87.30
14095;DHT22;18096;48.142;16.290;2022-09-16T18:17:49;17.30;87.60
14095;DHT22;18096;48.142;16.290;2022-09-16T18:20:14;17.40;87.40
14095;DHT22;18096;48.142;16.290;2022-09-16T18:22:40;17.40;87.00
14095;DHT22;18096;48.142;16.290;2022-09-16T18:25:06;17.40;87.20
14095;DHT22;18096;48.142;16.290;2022-09-16T18:27:32;17.50;87.00
14095;DHT22;18096;48.142;16.290;2022-09-16T18:30:07;17.60;86.50
14095;DHT22;18096;48.142;16.290;2022-09-16T18:32:36;17.50;86.40
14095;DHT22;18096;48.142;16.290;2022-09-16T18:35:01;17.40;86.70
14095;DHT22;18096;48.142;16.290;2022-09-16T18:40:36;17.70;85.40
14095;DHT22;18096;48.142;16.290;2022-09-16T18:43:38;17.60;85.30
14095;DHT22;18096;48.142;16.290;2022-09-16T18:46:52;17.70;85.50
14095;DHT22;18096;48.142;16.290;2022-09-16T18:49:23;17.60;86.00
14095;DHT22;18096;48.142;16.290;2022-09-16T18:51:58;17.70;85.60
14095;DHT22;18096;48.142;16.290;2022-09-16T18:54:27;17.80;85.10
14095;DHT22;18096;48.142;16.290;2022-09-16T18:56:58;17.80;84.80
14095;DHT22;18096;48.142;16.290;2022-09-16T18:59:27;17.80;84.70
14095;DHT22;18096;48.142;16.290;2022-09-16T19:01:55;17.70;85.00
14095;DHT22;18096;48.142;16.290;2022-09-16T19:04:27;17.60;85.30
14095;DHT22;18096;48.142;16.290;2022-09-16T19:06:55;17.50;85.50
14095;DHT22;18096;48.142;16.290;2022-09-16T19:09:42;17.50;85.50
14095;DHT22;18096;48.142;16.290;2022-09-16T19:12:12;17.40;85.30
14095;DHT22;18096;48.142;16.290;2022-09-16T19:14:38;17.40;85.70
14095;DHT22;18096;48.142;16.290;2022-09-16T19:17:04;17.30;84.90